createdAt,value
2023-05-14T00:08:52.829Z,78.6
2023-05-14T00:14:52.585Z,78.6
2023-05-14T00:20:53.043Z,78.3
2023-05-14T00:26:52.867Z,78.3
2023-05-14T00:44:52.690Z,78.3
2023-05-14T00:50:53.217Z,78.2
2023-05-14T00:56:52.700Z,78.2
2023-05-14T01:08:52.318Z,78.1
2023-05-14T01:14:52.299Z,78.1
2023-05-14T01:20:52.548Z,78.1
2023-05-14T01:26:53.449Z,77.9
2023-05-14T01:32:52.819Z,77.9
2023-05-14T01:38:52.492Z,78.2
2023-05-14T01:44:53.904Z,78.2
2023-05-14T01:50:52.431Z,77.8
2023-05-14T01:56:52.702Z,77.7
2023-05-14T02:02:52.815Z,77.7
2023-05-14T02:08:53.409Z,77.8
2023-05-14T02:14:52.511Z,77.7
2023-05-14T02:20:52.533Z,77.7
2023-05-14T02:26:52.474Z,77.8
2023-05-14T02:32:52.646Z,78
2023-05-14T02:38:52.437Z,77.8
2023-05-14T02:44:52.630Z,78.1
2023-05-14T02:50:53.077Z,78
2023-05-14T02:56:52.787Z,77.9
2023-05-14T03:02:53.071Z,77.9
2023-05-14T03:08:52.500Z,78
2023-05-14T03:14:52.471Z,77.9
2023-05-14T03:20:53.125Z,77.8
2023-05-14T03:26:52.557Z,77.5
2023-05-14T03:38:53.361Z,77.8
2023-05-14T03:44:52.896Z,78.2
2023-05-14T03:50:52.688Z,78
2023-05-14T03:56:52.789Z,77.9
2023-05-14T04:02:53.253Z,78
2023-05-14T04:14:52.510Z,78.1
2023-05-14T04:20:52.721Z,77.5
2023-05-14T04:26:52.690Z,77.9
2023-05-14T04:32:53.697Z,77.7
2023-05-14T04:38:52.540Z,77.5
2023-05-14T04:44:52.549Z,77.7
2023-05-14T04:50:53.091Z,77.5
2023-05-14T04:56:52.674Z,77.6
2023-05-14T05:02:52.991Z,77.8
2023-05-14T05:08:52.680Z,77.4
2023-05-14T05:14:52.936Z,78.1
2023-05-14T05:20:52.838Z,78.1
2023-05-14T05:26:52.536Z,77.8
2023-05-14T05:32:53.261Z,77.3
2023-05-14T05:38:53.289Z,76.8
2023-05-14T05:44:53.123Z,77.1
2023-05-14T05:50:53.017Z,77.1
2023-05-14T05:56:52.533Z,77.2
2023-05-14T06:02:53.728Z,77.4
2023-05-14T06:08:52.581Z,77.2
2023-05-14T06:14:53.516Z,77.1
2023-05-14T06:20:56.103Z,77.5
2023-05-14T06:26:55.867Z,78.2
2023-05-14T06:32:55.802Z,77.7
2023-05-14T06:38:54.375Z,77.1
2023-05-14T06:44:55.087Z,76.8
2023-05-14T06:50:52.697Z,76.6
2023-05-14T06:56:53.250Z,76.6
2023-05-14T07:02:53.541Z,75.9
2023-05-14T07:08:56.811Z,76.1
2023-05-14T07:14:55.298Z,75.5
2023-05-14T07:20:54.782Z,75.4
2023-05-14T07:26:56.200Z,74.8
2023-05-14T07:32:54.877Z,74.4
2023-05-14T07:38:52.964Z,74.4
2023-05-14T07:44:54.484Z,74.1
2023-05-14T07:50:53.685Z,73.5
2023-05-14T07:56:54.632Z,73.9
2023-05-14T08:02:53.112Z,71.6
2023-05-14T08:08:55.143Z,70.6
2023-05-14T08:14:57.505Z,68.6
2023-05-14T08:20:55.887Z,68.9
2023-05-14T08:26:53.491Z,69
2023-05-14T08:32:57.612Z,67.5
2023-05-14T08:38:53.164Z,65.3
2023-05-14T08:44:54.896Z,66
2023-05-14T08:50:58.015Z,64.9
2023-05-14T08:56:53.788Z,66.4
2023-05-14T09:02:57.620Z,65
2023-05-14T09:08:53.303Z,64.9
2023-05-14T09:14:52.592Z,63
2023-05-14T09:20:53.456Z,62.4
2023-05-14T09:26:56.743Z,64.2
2023-05-14T09:32:57.982Z,61.2
2023-05-14T09:38:56.111Z,61.4
2023-05-14T09:44:55.050Z,61.3
2023-05-14T09:51:04.757Z,59.3
2023-05-14T09:56:55.607Z,61.1
2023-05-14T10:03:00.257Z,59.6
2023-05-14T10:08:53.149Z,60.9
2023-05-14T10:14:53.190Z,61.7
2023-05-14T10:20:54.658Z,61.1
2023-05-14T10:26:54.287Z,59.5
2023-05-14T10:32:53.830Z,56.6
2023-05-14T10:38:57.181Z,57.8
2023-05-14T10:44:58.389Z,55.4
2023-05-14T10:56:54.733Z,56
2023-05-14T11:08:53.593Z,56.3
2023-05-14T11:14:53.649Z,57.6
2023-05-14T11:20:54.530Z,57.6
2023-05-14T11:26:53.817Z,59.3
2023-05-14T11:32:52.928Z,57.8
2023-05-14T11:38:53.833Z,55.9
2023-05-14T11:44:53.349Z,56.4
2023-05-14T11:50:53.518Z,56
2023-05-14T11:56:55.376Z,54
2023-05-14T12:02:52.880Z,54
2023-05-14T12:08:55.569Z,52.1
2023-05-14T12:14:53.216Z,51.4
2023-05-14T12:20:55.221Z,52.3
2023-05-14T12:26:54.006Z,50.2
2023-05-14T12:32:54.862Z,51.5
2023-05-14T12:38:54.085Z,53
2023-05-14T12:44:54.753Z,47.7
2023-05-14T12:50:54.322Z,46.6
2023-05-14T12:56:54.597Z,48.7
2023-05-14T13:02:54.977Z,49.1
2023-05-14T13:08:54.430Z,45
2023-05-14T13:14:53.519Z,45.4
2023-05-14T13:20:53.880Z,46.7
2023-05-14T13:26:53.678Z,44.2
2023-05-14T13:32:54.887Z,44.9
2023-05-14T13:38:54.881Z,42.4
2023-05-14T13:44:53.256Z,47.7
2023-05-14T13:50:59.898Z,46.7
2023-05-14T13:56:53.150Z,45.3
2023-05-14T14:02:52.941Z,45.2
2023-05-14T15:41:52.914Z,48.8
2023-05-14T15:47:53.356Z,42.4
2023-05-14T15:53:55.015Z,42.5
2023-05-14T15:59:53.775Z,43.2
2023-05-14T16:05:54.070Z,43.2
2023-05-14T16:11:53.089Z,35.5
2023-05-14T16:17:53.615Z,31.6
2023-05-14T16:23:53.020Z,36.3
2023-05-14T16:29:53.973Z,37.7
2023-05-14T16:35:53.856Z,40.7
2023-05-14T16:41:52.781Z,40.8
2023-05-14T16:47:53.296Z,44.1
2023-05-14T16:53:54.627Z,42.5
2023-05-14T16:59:53.349Z,44.1
2023-05-14T17:05:54.177Z,44.7
2023-05-14T17:11:53.147Z,45.7
2023-05-14T17:17:53.211Z,43.9
2023-05-14T17:23:53.016Z,43.2
2023-05-14T17:29:53.570Z,44.1
2023-05-14T17:35:52.829Z,44
2023-05-14T17:41:52.620Z,43.5
2023-05-14T17:47:52.973Z,42.4
2023-05-14T17:53:52.745Z,43
2023-05-14T17:59:53.239Z,45.4
2023-05-14T18:05:53.394Z,47
2023-05-14T18:11:54.658Z,49.1
2023-05-14T18:17:53.067Z,49.7
2023-05-14T18:29:52.837Z,50.9
2023-05-14T18:35:53.849Z,52.7
2023-05-14T18:41:52.801Z,54.1
2023-05-14T18:47:53.240Z,54.2
2023-05-14T18:53:53.067Z,54.5
2023-05-14T18:59:53.196Z,56
2023-05-14T19:05:53.646Z,56.8
2023-05-14T19:11:53.533Z,56.9
2023-05-14T19:17:53.250Z,56.8
2023-05-14T19:23:53.558Z,55.7
2023-05-14T19:29:53.033Z,55.6
2023-05-14T19:35:53.917Z,55.9
2023-05-14T19:41:53.645Z,56.4
2023-05-14T19:47:53.750Z,56.5
2023-05-14T19:53:52.902Z,56.8
2023-05-14T19:59:52.634Z,56.5
2023-05-14T20:05:54.052Z,56.4
2023-05-14T20:11:53.087Z,58
2023-05-14T20:17:52.749Z,58.1
2023-05-14T20:23:52.886Z,59.5
2023-05-14T20:29:52.711Z,60.3
2023-05-14T20:35:52.756Z,60.3
2023-05-14T20:47:53.274Z,61.2
2023-05-14T20:53:52.619Z,62.4
2023-05-14T20:59:53.509Z,63.2
2023-05-14T21:05:53.414Z,63.9
2023-05-14T21:11:53.281Z,64.3
2023-05-14T21:17:53.577Z,64.5
2023-05-14T21:23:52.724Z,65.1
2023-05-14T21:29:53.064Z,65.4
2023-05-14T21:35:53.882Z,67.3
2023-05-14T21:41:53.497Z,67.5
2023-05-14T21:47:52.755Z,67.4
2023-05-14T21:53:52.958Z,67.7
2023-05-14T21:59:53.390Z,68.3
2023-05-14T22:05:53.215Z,68.9
2023-05-14T22:11:52.857Z,69
2023-05-14T22:17:53.309Z,69.2
2023-05-14T22:23:53.248Z,69.6
2023-05-14T22:29:52.700Z,69.8
2023-05-14T22:35:54.137Z,70.1
2023-05-14T22:41:53.816Z,70.3
2023-05-14T22:47:53.111Z,70.5
2023-05-14T22:53:53.420Z,70.8
2023-05-14T22:59:53.581Z,71.1
2023-05-14T23:05:53.719Z,71.4
2023-05-14T23:11:54.254Z,71.4
2023-05-14T23:17:53.807Z,71.4
2023-05-14T23:23:53.810Z,71.4
2023-05-14T23:29:54.534Z,71.4
2023-05-14T23:35:53.614Z,71.7
2023-05-14T23:41:52.675Z,71.6
2023-05-14T23:47:53.347Z,72
2023-05-14T23:53:53.444Z,72.2
2023-05-14T23:59:53.823Z,72.8
